createdAt,value
2018-04-11T00:00:23.478Z,23.20
2018-04-11T00:01:23.479Z,23.60
2018-04-11T00:02:23.479Z,23.50
2018-04-11T00:03:23.480Z,23.40
2018-04-11T00:04:23.480Z,24.10
2018-04-11T00:06:23.480Z,22.60
2018-04-11T00:07:23.484Z,22.80
2018-04-11T00:08:23.482Z,22.90
2018-04-11T00:09:23.685Z,23.20
2018-04-11T00:10:23.483Z,23.20
2018-04-11T00:11:23.484Z,23.50
2018-04-11T00:12:23.487Z,24.10
2018-04-11T00:13:23.484Z,24.60
2018-04-11T00:14:23.485Z,23.60
2018-04-11T00:15:23.487Z,24.10
2018-04-11T00:16:23.488Z,23.80
2018-04-11T00:17:23.491Z,25.00
2018-04-11T00:18:23.489Z,22.90
2018-04-11T00:19:23.489Z,24.20
2018-04-11T00:22:49.494Z,23.80
2018-04-11T00:23:49.194Z,23.80
2018-04-11T00:30:58.170Z,24.20
2018-04-11T00:36:07.146Z,30.40
2018-04-11T00:37:07.165Z,29.20
2018-04-11T00:38:07.145Z,32.20
2018-04-11T00:39:07.145Z,32.00
2018-04-11T00:40:07.145Z,32.50
2018-04-11T00:41:07.145Z,31.70
2018-04-11T00:42:07.145Z,31.80
2018-04-11T00:43:07.146Z,32.00
2018-04-11T00:44:07.145Z,30.50
2018-04-11T00:45:07.149Z,31.50
2018-04-11T00:47:07.149Z,32.30
2018-04-11T00:53:11.228Z,36.10
2018-04-11T00:54:11.237Z,36.10
2018-04-11T00:55:11.228Z,36.90
2018-04-11T00:56:11.229Z,37.20
2018-04-11T00:57:11.229Z,37.10
2018-04-11T00:58:11.226Z,37.90
2018-04-11T00:59:11.227Z,36.80
2018-04-11T01:00:11.226Z,38.80
2018-04-11T01:01:11.225Z,38.30
2018-04-11T01:02:11.225Z,38.80
2018-04-11T01:03:11.226Z,37.70
2018-04-11T01:04:11.227Z,39.50
2018-04-11T01:05:11.231Z,39.00
2018-04-11T01:06:11.231Z,39.00
2018-04-11T01:07:11.231Z,38.80
2018-04-11T01:08:11.232Z,38.30
2018-04-11T01:09:11.231Z,38.40
2018-04-11T01:10:11.231Z,38.70
2018-04-11T01:11:11.231Z,38.80
2018-04-11T01:12:11.235Z,38.70
2018-04-11T01:13:11.234Z,39.50
2018-04-11T01:14:11.219Z,39.50
2018-04-11T01:15:11.218Z,39.20
2018-04-11T01:16:11.219Z,40.70
2018-04-11T01:17:11.216Z,40.40
2018-04-11T01:18:11.216Z,38.80
2018-04-11T01:19:11.217Z,40.20
2018-04-11T01:20:11.216Z,39.70
2018-04-11T01:22:11.219Z,38.80
2018-04-11T01:23:11.214Z,39.40
2018-04-11T01:24:11.214Z,40.00
2018-04-11T01:25:11.211Z,39.80
2018-04-11T01:26:11.212Z,39.70
2018-04-11T01:27:11.213Z,39.40
2018-04-11T01:28:11.211Z,39.30
2018-04-11T01:29:11.234Z,39.80
2018-04-11T01:30:11.209Z,39.80
2018-04-11T01:31:11.209Z,38.40
2018-04-11T01:32:11.212Z,38.30
2018-04-11T01:33:11.206Z,39.80
2018-04-11T01:34:11.207Z,39.20
2018-04-11T01:35:11.204Z,39.90
2018-04-11T01:36:11.203Z,39.00
2018-04-11T01:37:11.202Z,38.90
2018-04-11T01:38:11.201Z,38.20
2018-04-11T01:39:11.200Z,38.70
2018-04-11T01:40:11.199Z,39.70
2018-04-11T01:41:11.202Z,39.70
2018-04-11T01:42:11.202Z,39.60
2018-04-11T01:43:11.207Z,39.50
2018-04-11T01:44:11.206Z,40.40
2018-04-11T01:45:11.207Z,39.20
2018-04-11T01:46:11.192Z,40.40
2018-04-11T01:47:11.206Z,39.20
2018-04-11T01:48:11.190Z,40.40
2018-04-11T01:49:11.189Z,39.40
2018-04-11T01:50:11.187Z,39.10
2018-04-11T01:51:11.186Z,39.70
2018-04-11T01:52:11.189Z,39.30
2018-04-11T01:53:11.187Z,39.00
2018-04-11T01:54:11.199Z,39.60
2018-04-11T01:55:11.181Z,39.20
2018-04-11T01:56:11.181Z,39.40
2018-04-11T01:57:11.178Z,39.40
2018-04-11T01:58:11.177Z,37.90
2018-04-11T01:59:11.176Z,40.50
2018-04-11T02:00:11.175Z,38.00
2018-04-11T02:01:11.173Z,39.30
2018-04-11T02:02:11.172Z,39.10
2018-04-11T02:03:11.169Z,38.70
2018-04-11T02:04:11.169Z,39.20
2018-04-11T02:05:11.166Z,40.20
2018-04-11T02:06:11.165Z,40.00
2018-04-11T02:07:11.165Z,39.50
2018-04-11T02:08:11.162Z,38.40
2018-04-11T02:09:11.163Z,39.60
2018-04-11T02:10:11.159Z,40.40
2018-04-11T02:11:11.157Z,40.80
2018-04-11T02:12:11.156Z,39.20
2018-04-11T02:13:11.153Z,40.10
2018-04-11T02:14:11.152Z,40.10
2018-04-11T02:15:11.150Z,39.90
2018-04-11T02:16:11.148Z,38.60
2018-04-11T02:17:11.146Z,40.00
2018-04-11T02:18:11.144Z,40.10
2018-04-11T02:19:11.143Z,40.40
2018-04-11T02:20:11.141Z,40.10
2018-04-11T02:21:11.139Z,40.50
2018-04-11T02:22:11.137Z,39.60
2018-04-11T02:23:11.134Z,39.60
2018-04-11T02:24:11.133Z,41.10
2018-04-11T02:25:11.131Z,39.90
2018-04-11T02:26:11.128Z,40.80
2018-04-11T02:27:11.126Z,38.60
2018-04-11T02:28:11.126Z,39.70
2018-04-11T02:29:11.122Z,39.00
2018-04-11T02:30:11.121Z,40.40
2018-04-11T02:31:11.120Z,40.70
2018-04-11T02:32:11.120Z,39.50
2018-04-11T02:33:11.115Z,39.40
2018-04-11T02:34:11.119Z,39.00
2018-04-11T02:35:11.112Z,40.10
2018-04-11T02:36:11.110Z,40.10
2018-04-11T02:37:11.112Z,38.00
2018-04-11T02:38:11.104Z,40.00
2018-04-11T02:39:11.102Z,40.10
2018-04-11T02:40:11.099Z,39.10
2018-04-11T02:41:11.096Z,39.10
2018-04-11T02:42:11.095Z,37.90
2018-04-11T02:43:11.094Z,38.90
2018-04-11T02:44:11.091Z,41.40
2018-04-11T02:45:11.089Z,40.70
2018-04-11T02:46:11.288Z,38.60
2018-04-11T02:47:11.084Z,41.80
2018-04-11T02:48:11.081Z,40.30
2018-04-11T02:49:11.078Z,40.60
2018-04-11T02:50:11.075Z,39.70
2018-04-11T02:51:11.074Z,41.00
2018-04-11T02:52:11.071Z,41.20
2018-04-11T02:53:11.067Z,42.50
2018-04-11T02:54:11.065Z,40.90
2018-04-11T02:55:11.063Z,41.00
2018-04-11T02:56:11.060Z,40.70
2018-04-11T02:57:11.058Z,41.50
2018-04-11T02:58:11.057Z,40.00
2018-04-11T02:59:11.053Z,40.90
2018-04-11T03:01:11.048Z,39.70
2018-04-11T03:02:11.046Z,40.90
2018-04-11T03:03:11.044Z,40.00
2018-04-11T03:04:11.042Z,39.90
2018-04-11T03:05:11.038Z,40.20
2018-04-11T03:06:11.035Z,38.60
2018-04-11T03:07:11.035Z,39.30
2018-04-11T03:08:11.033Z,39.50
2018-04-11T03:09:11.028Z,39.70
2018-04-11T03:10:11.027Z,39.70
2018-04-11T03:11:11.023Z,38.90
2018-04-11T03:12:11.020Z,38.70
2018-04-11T03:13:11.018Z,38.70
2018-04-11T03:14:11.015Z,39.30
2018-04-11T03:15:11.013Z,40.10
2018-04-11T03:16:11.011Z,41.20
2018-04-11T03:17:11.007Z,40.50
2018-04-11T03:18:11.005Z,39.20
2018-04-11T03:19:11.006Z,38.30
2018-04-11T03:20:11.002Z,39.00
2018-04-11T03:21:10.995Z,38.80
2018-04-11T03:22:10.994Z,37.80
2018-04-11T03:23:10.991Z,39.50
2018-04-11T03:24:10.989Z,39.40
2018-04-11T03:25:10.985Z,39.20
2018-04-11T03:27:10.980Z,39.40
2018-04-11T03:28:10.976Z,39.70
2018-04-11T03:29:10.973Z,38.90
2018-04-11T03:30:10.969Z,34.90
2018-04-11T03:31:10.977Z,39.50
2018-04-11T03:32:10.965Z,38.90
2018-04-11T03:33:10.961Z,38.30
2018-04-11T03:34:10.958Z,38.50
2018-04-11T03:35:10.956Z,36.50
2018-04-11T03:36:10.952Z,38.00
2018-04-11T03:37:10.949Z,37.60
2018-04-11T03:38:10.945Z,39.80
2018-04-11T03:39:10.944Z,36.60
2018-04-11T03:40:10.940Z,35.70
2018-04-11T03:41:10.935Z,38.00
2018-04-11T03:42:10.934Z,36.00
2018-04-11T03:43:10.931Z,37.90
2018-04-11T03:44:10.932Z,37.60
2018-04-11T03:45:10.924Z,35.30
2018-04-11T03:46:10.921Z,35.60
2018-04-11T03:47:10.918Z,35.30
2018-04-11T03:48:10.915Z,36.10
2018-04-11T03:49:10.911Z,36.90
2018-04-11T03:50:10.909Z,36.80
2018-04-11T03:51:10.908Z,35.00
2018-04-11T03:52:10.903Z,36.10
2018-04-11T03:53:10.899Z,35.40
2018-04-11T03:54:10.899Z,36.30
2018-04-11T03:55:10.890Z,37.50
2018-04-11T03:56:10.888Z,35.40
2018-04-11T03:57:10.885Z,35.30
2018-04-11T03:58:10.881Z,34.00
2018-04-11T03:59:10.879Z,34.20
2018-04-11T04:00:10.875Z,34.60
2018-04-11T04:01:10.872Z,34.00
2018-04-11T04:02:10.866Z,34.30
2018-04-11T04:03:10.864Z,34.10
2018-04-11T04:04:10.860Z,34.10
2018-04-11T04:05:10.858Z,36.40
2018-04-11T04:06:10.855Z,35.60
2018-04-11T04:07:10.848Z,35.40
2018-04-11T04:08:10.847Z,34.00
2018-04-11T04:09:10.842Z,36.50
2018-04-11T04:10:10.838Z,35.70
2018-04-11T04:11:10.836Z,36.60
2018-04-11T04:12:10.832Z,34.30
2018-04-11T04:13:10.827Z,35.60
2018-04-11T04:14:10.825Z,35.80
2018-04-11T04:15:10.821Z,35.90
2018-04-11T04:16:10.817Z,36.40
2018-04-11T04:17:10.814Z,37.40
2018-04-11T04:18:10.810Z,35.30
2018-04-11T04:19:10.806Z,36.50
2018-04-11T04:20:10.803Z,38.60
2018-04-11T04:21:10.800Z,35.70
2018-04-11T04:22:10.795Z,36.90
2018-04-11T04:23:10.792Z,35.70
2018-04-11T04:24:10.789Z,36.20
2018-04-11T04:25:10.785Z,35.90
2018-04-11T04:26:10.783Z,34.70
2018-04-11T04:27:10.777Z,34.80
2018-04-11T04:28:10.775Z,35.30
2018-04-11T04:29:10.770Z,33.30
2018-04-11T04:30:10.766Z,33.30
2018-04-11T04:31:10.763Z,33.50
2018-04-11T04:32:10.761Z,35.20
2018-04-11T04:33:10.755Z,33.20
2018-04-11T04:34:10.751Z,33.80
2018-04-11T04:35:10.749Z,34.70
2018-04-11T04:36:10.751Z,35.00
2018-04-11T04:37:10.764Z,34.50
2018-04-11T04:38:10.735Z,34.30
2018-04-11T04:39:10.733Z,33.80
2018-04-11T04:40:10.730Z,31.80
2018-04-11T04:41:10.726Z,33.40
2018-04-11T04:42:10.722Z,33.10
2018-04-11T04:43:10.718Z,33.00
2018-04-11T04:44:10.715Z,33.80
2018-04-11T04:45:10.711Z,34.20
2018-04-11T04:46:10.709Z,35.50
2018-04-11T04:47:10.953Z,35.10
2018-04-11T04:48:10.701Z,33.60
2018-04-11T04:49:10.695Z,33.70
2018-04-11T04:50:10.693Z,32.70
2018-04-11T04:51:10.694Z,34.10
2018-04-11T04:52:10.686Z,34.40
2018-04-11T04:53:10.782Z,34.90
2018-04-11T04:54:10.678Z,35.00
2018-04-11T04:55:10.673Z,34.00
2018-04-11T04:56:10.671Z,35.30
2018-04-11T04:57:10.665Z,35.60
2018-04-11T04:58:10.662Z,34.80
2018-04-11T04:59:10.660Z,36.90
2018-04-11T05:00:10.659Z,33.50
2018-04-11T05:01:10.652Z,33.50
2018-04-11T05:02:10.648Z,34.80
2018-04-11T05:03:10.645Z,35.30
2018-04-11T05:04:10.642Z,33.00
2018-04-11T05:05:10.638Z,32.90
2018-04-11T05:06:10.634Z,34.90
2018-04-11T05:07:10.629Z,35.20
2018-04-11T05:08:10.627Z,33.90
2018-04-11T05:09:10.623Z,32.90
2018-04-11T05:10:10.618Z,34.10
2018-04-11T05:11:10.615Z,35.00
2018-04-11T05:12:10.612Z,33.60
2018-04-11T05:13:10.607Z,33.30
2018-04-11T05:14:10.625Z,33.60
2018-04-11T05:15:10.603Z,29.00
2018-04-11T05:16:10.597Z,32.00
2018-04-11T05:17:10.593Z,31.60
2018-04-11T05:18:10.588Z,32.30
2018-04-11T05:19:10.584Z,34.40
2018-04-11T05:20:10.580Z,32.30
2018-04-11T05:21:10.576Z,32.40
2018-04-11T05:22:10.570Z,33.20
2018-04-11T05:23:10.568Z,34.10
2018-04-11T05:24:10.564Z,33.30
2018-04-11T05:25:10.560Z,32.40
2018-04-11T05:26:10.556Z,32.30
2018-04-11T05:27:10.587Z,32.20
2018-04-11T05:28:10.550Z,33.30
2018-04-11T05:29:10.543Z,32.90
2018-04-11T05:30:10.540Z,31.60
2018-04-11T05:31:10.536Z,33.60
2018-04-11T05:32:10.532Z,32.60
2018-04-11T05:33:10.528Z,30.40
2018-04-11T05:34:10.523Z,31.60
2018-04-11T05:35:10.521Z,32.70
2018-04-11T05:36:10.516Z,32.60
2018-04-11T05:37:10.512Z,32.20
2018-04-11T05:38:10.508Z,35.30
2018-04-11T05:39:10.504Z,34.30
2018-04-11T05:40:10.503Z,32.10
2018-04-11T05:41:10.504Z,33.20
2018-04-11T05:42:10.508Z,33.00
2018-04-11T05:43:10.510Z,35.10
2018-04-11T05:44:10.483Z,35.00
2018-04-11T05:45:10.479Z,32.40
2018-04-11T05:46:10.478Z,32.00
2018-04-11T05:47:10.623Z,31.90
2018-04-11T05:48:10.471Z,29.60
2018-04-11T05:49:10.465Z,29.70
2018-04-11T05:50:10.462Z,31.90
2018-04-11T05:51:10.461Z,31.80
2018-04-11T05:52:10.454Z,33.60
2018-04-11T05:53:10.706Z,31.80
2018-04-11T05:55:10.460Z,32.50
2018-04-11T05:56:10.457Z,31.80
2018-04-11T05:57:10.436Z,35.00
2018-04-11T05:58:10.433Z,31.10
2018-04-11T05:59:10.682Z,31.50
2018-04-11T06:00:10.427Z,31.00
2018-04-11T06:01:10.425Z,31.90
2018-04-11T06:02:10.424Z,31.00
2018-04-11T06:03:10.416Z,32.30
2018-04-11T06:04:10.411Z,31.00
2018-04-11T06:05:10.660Z,34.10
2018-04-11T06:06:10.405Z,32.00
2018-04-11T06:07:10.401Z,33.10
2018-04-11T06:08:10.399Z,32.90
2018-04-11T06:09:10.398Z,30.40
2018-04-11T06:10:10.391Z,30.80
2018-04-11T06:11:10.390Z,30.40
2018-04-11T06:12:10.387Z,31.50
2018-04-11T06:13:10.382Z,29.40
2018-04-11T06:14:10.379Z,31.30
2018-04-11T06:15:10.375Z,32.40
2018-04-11T06:16:10.373Z,30.70
2018-04-11T06:17:43.578Z,32.20
2018-04-11T06:18:10.366Z,32.20
2018-04-11T06:19:10.385Z,30.00
2018-04-11T06:20:10.363Z,30.20
2018-04-11T06:21:10.359Z,29.70
2018-04-11T06:22:10.354Z,31.50
2018-04-11T06:23:10.500Z,30.50
2018-04-11T06:24:10.347Z,29.50
2018-04-11T06:25:10.344Z,30.30
2018-04-11T06:26:10.341Z,30.30
2018-04-11T06:27:10.337Z,29.10
2018-04-11T06:28:10.352Z,28.30
2018-04-11T06:29:10.332Z,29.30
2018-04-11T06:30:10.330Z,30.30
2018-04-11T06:31:10.328Z,28.60
2018-04-11T06:32:10.325Z,28.40
2018-04-11T06:33:10.321Z,29.30
2018-04-11T06:34:10.320Z,28.90
2018-04-11T06:35:10.393Z,28.20
2018-04-11T06:36:10.317Z,29.10
2018-04-11T06:37:10.314Z,27.60
2018-04-11T06:38:10.313Z,27.50
2018-04-11T06:39:10.314Z,27.60
2018-04-11T06:40:10.310Z,27.20
2018-04-11T06:41:10.310Z,27.80
2018-04-11T06:44:36.003Z,26.70
2018-04-11T07:19:45.438Z,23.90
2018-04-11T08:11:39.429Z,20.50
2018-04-11T08:12:39.451Z,21.20
2018-04-11T08:13:39.441Z,21.10
